Time;durP1;ratioP1;P1;durP2;ratioP2;P2;SDS_P1;SDS_P2;PMS_P1;PMS_P2;Temp;Humidity;BMP_temperature;BMP_pressure;BME280_temperature;BME280_humidity;BME280_pressure;Samples;Min_cycle;Max_cycle;Signal;HPM_P1;HPM_P2
2021/11/08 00:01:18;;;;;;;16.98;7.95;;;;;;;12.37;93.25;93289.78;5033410;28;20045;-81
2021/11/08 00:03:49;;;;;;;16.58;6.43;;;;;;;12.45;93.16;93298.22;5032693;28;20041;-81
2021/11/08 00:06:17;;;;;;;16.70;6.10;;;;;;;12.41;93.54;93300.47;5033560;28;20049;-81
2021/11/08 00:08:43;;;;;;;12.35;5.53;;;;;;;12.38;93.46;93290.59;5033553;28;20052;-81
2021/11/08 00:11:10;;;;;;;14.52;5.47;;;;;;;12.38;93.48;93301.69;5033733;28;20051;-81
2021/11/08 00:13:37;;;;;;;16.30;6.03;;;;;;;12.25;93.64;93289.75;5033241;28;20053;-81
2021/11/08 00:16:14;;;;;;;15.60;5.18;;;;;;;12.26;93.71;93293.91;5033358;28;20056;-81
2021/11/08 00:18:46;;;;;;;14.82;5.55;;;;;;;12.30;93.39;93289.09;5033210;28;20045;-82
2021/11/08 00:21:17;;;;;;;11.68;4.80;;;;;;;12.13;93.97;93263.19;5033151;28;20419;-82
2021/11/08 00:23:44;;;;;;;13.77;5.40;;;;;;;12.24;93.66;93279.66;5033377;28;20100;-81
2021/11/08 00:26:11;;;;;;;15.95;5.10;;;;;;;12.26;93.76;93283.59;5032779;28;20041;-81
2021/11/08 00:28:38;;;;;;;10.93;4.78;;;;;;;12.27;93.52;93284.41;5033566;28;20052;-81
2021/11/08 00:31:05;;;;;;;10.98;4.57;;;;;;;12.23;93.56;93283.25;5033068;28;20049;-81
2021/11/08 00:33:32;;;;;;;14.00;6.10;;;;;;;12.17;93.73;93279.75;5032594;28;20049;-81
2021/11/08 00:36:01;;;;;;;17.65;5.90;;;;;;;12.21;93.80;93282.69;5033105;28;20138;-81
2021/11/08 00:38:30;;;;;;;14.90;4.85;;;;;;;11.98;94.05;93253.22;5033205;28;20059;-81
2021/11/08 00:40:57;;;;;;;14.73;5.53;;;;;;;12.16;93.63;93273.03;5033029;28;20056;-81
2021/11/08 00:43:24;;;;;;;12.93;5.68;;;;;;;12.16;93.67;93275.59;5033617;28;20057;-81
2021/11/08 00:45:51;;;;;;;15.98;5.15;;;;;;;12.13;93.90;93269.09;5033287;28;20045;-82
2021/11/08 00:48:20;;;;;;;16.05;5.25;;;;;;;12.08;94.37;93271.53;5032486;28;20056;-81
2021/11/08 00:50:48;;;;;;;14.65;5.35;;;;;;;12.05;94.32;93261.69;5033047;28;20144;-81
2021/11/08 00:53:15;;;;;;;13.07;5.97;;;;;;;11.95;94.86;93251.09;5033494;28;20056;-82
2021/11/08 00:55:44;;;;;;;14.27;4.88;;;;;;;12.03;94.71;93261.06;5031789;28;20504;-81
2021/11/08 00:58:17;;;;;;;14.10;5.95;;;;;;;12.02;94.10;93256.94;5029165;28;20526;-81
2021/11/08 01:00:44;;;;;;;16.65;6.25;;;;;;;11.87;94.43;93234.94;5030671;28;20129;-81
2021/11/08 01:03:13;;;;;;;15.98;5.38;;;;;;;12.00;94.68;93251.22;5030649;28;20060;-81
2021/11/08 01:05:40;;;;;;;10.27;4.90;;;;;;;11.82;94.48;93223.72;5030886;28;20128;-81
2021/11/08 01:08:08;;;;;;;17.67;5.95;;;;;;;11.97;94.55;93255.00;5030852;28;20134;-81
2021/11/08 01:10:35;;;;;;;14.55;5.95;;;;;;;11.99;95.01;93249.66;5030790;28;20099;-80
2021/11/08 01:13:03;;;;;;;16.27;5.30;;;;;;;11.91;95.03;93250.72;5030357;28;20103;-80
2021/11/08 01:15:30;;;;;;;17.05;6.65;;;;;;;11.95;94.72;93246.69;5030082;28;20050;-79
2021/11/08 01:17:57;;;;;;;15.48;6.43;;;;;;;11.96;94.46;93247.50;5030082;28;20196;-79
2021/11/08 01:20:31;;;;;;;17.90;5.93;;;;;;;11.96;94.57;93242.34;5029993;28;20132;-80
2021/11/08 01:22:58;;;;;;;15.05;5.38;;;;;;;11.98;93.88;93248.06;5030176;28;20052;-80
2021/11/08 01:25:25;;;;;;;13.38;5.53;;;;;;;11.90;93.94;93249.94;5030057;28;20052;-80
2021/11/08 01:27:55;;;;;;;17.63;5.63;;;;;;;11.88;94.55;93243.44;5030513;28;20053;-80
2021/11/08 01:30:25;;;;;;;14.05;4.93;;;;;;;11.86;94.47;93245.44;5030326;28;20095;-81
2021/11/08 01:32:55;;;;;;;14.23;5.35;;;;;;;11.77;94.81;93237.25;5030233;28;20088;-81
2021/11/08 01:35:30;;;;;;;17.25;5.25;;;;;;;11.81;95.36;93238.34;5029719;28;20077;-81
2021/11/08 01:38:03;;;;;;;15.10;6.03;;;;;;;11.73;94.84;93231.75;5030183;28;20410;-81
2021/11/08 01:40:30;;;;;;;11.80;5.15;;;;;;;11.76;95.35;93231.28;5029999;28;20466;-81
2021/11/08 01:42:57;;;;;;;15.43;5.60;;;;;;;11.74;95.23;93222.22;5029457;28;20049;-81
2021/11/08 01:45:26;;;;;;;14.93;6.55;;;;;;;11.72;95.87;93219.84;5030279;28;20072;-81
2021/11/08 01:47:53;;;;;;;14.88;5.55;;;;;;;11.66;95.64;93218.16;5030119;28;20407;-80
2021/11/08 01:50:20;;;;;;;13.00;6.38;;;;;;;11.61;95.60;93207.72;5029354;28;20058;-80
2021/11/08 01:52:47;;;;;;;11.90;4.93;;;;;;;11.67;95.97;93218.94;5029445;28;20568;-80
2021/11/08 01:55:14;;;;;;;13.43;5.03;;;;;;;11.62;95.83;93214.47;5029479;28;20099;-80
2021/11/08 01:57:41;;;;;;;17.25;6.30;;;;;;;11.61;95.89;93215.44;5029225;28;20096;-80
2021/11/08 02:00:09;;;;;;;15.02;5.70;;;;;;;11.60;96.06;93206.16;5029329;28;20049;-80
2021/11/08 02:02:38;;;;;;;16.98;5.32;;;;;;;11.57;96.23;93209.16;5029277;28;20095;-80
2021/11/08 02:05:05;;;;;;;14.13;5.18;;;;;;;11.53;95.91;93202.88;5029336;28;20057;-81
2021/11/08 02:07:32;;;;;;;11.45;4.78;;;;;;;11.44;96.07;93192.84;5029536;28;20053;-81
2021/11/08 02:10:00;;;;;;;12.52;5.03;;;;;;;11.50;95.23;93197.13;5029340;28;20586;-81
2021/11/08 02:12:27;;;;;;;11.25;4.32;;;;;;;11.20;95.18;93153.38;5029364;28;20049;-81
2021/11/08 02:14:54;;;;;;;14.95;5.45;;;;;;;11.34;95.65;93169.47;5029188;28;20549;-81
2021/11/08 02:17:21;;;;;;;17.08;5.97;;;;;;;11.44;95.62;93190.28;5028832;28;20573;-80
2021/11/08 02:19:50;;;;;;;10.85;5.20;;;;;;;11.41;95.06;93188.16;5029546;28;20060;-80
2021/11/08 02:22:18;;;;;;;14.25;4.70;;;;;;;11.37;95.55;93197.28;5029314;28;20053;-80
2021/11/08 02:24:45;;;;;;;12.85;4.75;;;;;;;11.36;95.93;93196.50;5029064;28;20490;-80
2021/11/08 02:27:12;;;;;;;12.57;5.10;;;;;;;11.31;96.24;93193.81;5030040;28;20046;-80
2021/11/08 02:29:39;;;;;;;14.98;5.50;;;;;;;11.38;95.80;93198.09;5033191;28;20075;-80
2021/11/08 02:32:07;;;;;;;13.75;5.50;;;;;;;11.32;95.88;93195.38;5033118;28;20055;-80
2021/11/08 02:34:33;;;;;;;11.63;4.68;;;;;;;11.36;95.95;93200.88;5033062;28;20053;-80
2021/11/08 02:37:00;;;;;;;12.40;5.00;;;;;;;11.38;95.22;93195.53;5033124;28;20045;-81
2021/11/08 02:39:32;;;;;;;16.27;4.43;;;;;;;11.39;95.05;93189.38;5033247;28;20055;-80
2021/11/08 02:41:59;;;;;;;17.60;5.22;;;;;;;11.40;94.88;93189.16;5032949;28;20056;-80
2021/11/08 02:44:27;;;;;;;16.10;4.90;;;;;;;11.42;95.07;93186.34;5033119;28;20045;-80
2021/11/08 02:46:56;;;;;;;15.32;5.35;;;;;;;11.44;94.33;93174.09;5032801;28;20407;-80
2021/11/08 02:49:25;;;;;;;15.85;5.18;;;;;;;11.43;94.21;93170.72;5033087;28;20156;-80
2021/11/08 02:52:00;;;;;;;21.00;5.57;;;;;;;11.40;94.46;93166.03;5032756;28;20515;-80
2021/11/08 02:54:28;;;;;;;16.17;4.80;;;;;;;11.41;94.36;93161.66;5032728;28;20095;-81
2021/11/08 02:56:57;;;;;;;13.25;4.57;;;;;;;11.16;94.31;93122.16;5032842;28;20073;-80
2021/11/08 02:59:26;;;;;;;17.25;5.05;;;;;;;11.37;94.17;93148.44;5033009;28;20041;-80
2021/11/08 03:01:53;;;;;;;14.32;4.28;;;;;;;11.37;93.82;93148.44;5032664;28;20137;-80
2021/11/08 03:04:24;;;;;;;10.82;4.20;;;;;;;11.44;93.74;93154.28;5033144;28;20077;-81
2021/11/08 03:06:51;;;;;;;16.33;4.95;;;;;;;11.38;94.24;93146.66;5032768;28;20176;-80
2021/11/08 03:09:22;;;;;;;12.27;4.40;;;;;;;11.41;93.62;93153.94;5032237;28;20050;-80
2021/11/08 03:11:49;;;;;;;20.83;5.88;;;;;;;11.39;93.80;93150.78;5032457;28;20061;-80
2021/11/08 03:14:20;;;;;;;14.43;4.82;;;;;;;11.30;93.45;93138.22;5032611;28;20407;-80
2021/11/08 03:16:49;;;;;;;16.38;6.28;;;;;;;11.36;94.11;93159.72;5032386;28;20049;-79
2021/11/08 03:19:20;;;;;;;16.77;6.82;;;;;;;11.35;94.42;93150.44;5032257;28;20565;-79
2021/11/08 03:21:49;;;;;;;13.50;5.18;;;;;;;11.39;94.08;93143.84;5032547;28;20046;-79
2021/11/08 03:24:20;;;;;;;14.55;5.18;;;;;;;11.42;94.06;93142.63;5032575;28;20083;-80
2021/11/08 03:26:49;;;;;;;18.77;5.50;;;;;;;11.25;94.76;93148.34;5032198;28;20049;-80
2021/11/08 03:29:18;;;;;;;18.80;7.43;;;;;;;11.11;95.56;93147.72;5032434;28;20057;-80
2021/11/08 03:31:49;;;;;;;16.63;6.60;;;;;;;10.93;96.28;93133.88;5032141;28;20041;-80
2021/11/08 03:34:17;;;;;;;15.70;6.05;;;;;;;10.94;96.74;93145.72;5032443;28;20073;-81
2021/11/08 03:36:44;;;;;;;21.38;7.82;;;;;;;10.78;97.90;93146.28;5032281;28;20055;-81
2021/11/08 03:39:14;;;;;;;22.20;10.10;;;;;;;10.58;99.10;93119.00;5031889;28;20064;-80
2021/11/08 03:41:41;;;;;;;30.15;14.32;;;;;;;10.55;100.00;93145.09;5031882;28;20132;-80
2021/11/08 03:44:08;;;;;;;39.60;15.13;;;;;;;10.31;100.00;93144.09;5031866;28;20069;-80
2021/11/08 03:46:36;;;;;;;40.47;16.17;;;;;;;9.87;100.00;93149.88;5031984;28;20053;-80
2021/11/08 03:49:03;;;;;;;33.67;17.20;;;;;;;9.68;100.00;93149.00;5031764;28;20049;-79
2021/11/08 03:51:30;;;;;;;38.63;19.23;;;;;;;9.27;100.00;93141.50;5032130;28;20045;-79
2021/11/08 03:53:57;;;;;;;36.53;17.63;;;;;;;8.99;100.00;93152.81;5032110;28;20050;-79
2021/11/08 03:56:24;;;;;;;37.75;20.13;;;;;;;8.91;100.00;93163.25;5031610;28;20053;-79
2021/11/08 03:58:51;;;;;;;38.10;17.75;;;;;;;8.85;100.00;93158.94;5031578;28;20144;-78
2021/11/08 04:01:18;;;;;;;40.92;18.83;;;;;;;8.82;100.00;93158.34;5031531;28;20100;-78
2021/11/08 04:03:46;;;;;;;33.35;17.77;;;;;;;8.82;100.00;93155.78;5031888;28;20053;-78
2021/11/08 04:06:14;;;;;;;39.40;18.45;;;;;;;8.91;100.00;93168.38;5031828;28;20049;-78
2021/11/08 04:08:41;;;;;;;38.97;18.70;;;;;;;8.76;100.00;93159.16;5031331;28;20046;-80
2021/11/08 04:11:08;;;;;;;40.80;18.70;;;;;;;8.79;100.00;93158.75;5031731;28;20053;-79
2021/11/08 04:13:39;;;;;;;40.03;19.17;;;;;;;8.49;100.00;93150.66;5031286;28;20129;-79
2021/11/08 04:16:07;;;;;;;38.38;19.33;;;;;;;8.53;100.00;93162.91;5031588;28;20045;-79
2021/11/08 04:18:34;;;;;;;34.03;18.60;;;;;;;8.47;100.00;93150.88;5031255;28;20050;-78
2021/11/08 04:21:03;;;;;;;39.95;20.25;;;;;;;8.62;100.00;93166.06;5031356;28;20045;-78
2021/11/08 04:23:31;;;;;;;35.50;19.23;;;;;;;8.62;100.00;93170.38;5031170;28;20136;-78
2021/11/08 04:25:59;;;;;;;41.95;21.35;;;;;;;8.55;100.00;93172.94;5031196;28;20118;-80
2021/11/08 04:28:26;;;;;;;37.90;20.92;;;;;;;8.49;100.00;93169.38;5031583;28;20084;-80
2021/11/08 04:30:53;;;;;;;37.17;18.48;;;;;;;8.42;100.00;93171.13;5030952;28;20045;-81
2021/11/08 04:33:30;;;;;;;34.15;19.10;;;;;;;8.41;100.00;93164.44;5030865;28;20076;-80
2021/11/08 04:36:08;;;;;;;41.25;19.05;;;;;;;8.41;100.00;93183.16;5031345;28;20103;-80
2021/11/08 04:38:45;;;;;;;34.85;19.23;;;;;;;8.40;100.00;93179.03;5031059;28;20050;-80
2021/11/08 04:41:19;;;;;;;39.33;19.65;;;;;;;8.45;100.00;93173.31;5031149;28;20067;-80
2021/11/08 04:43:58;;;;;;;41.28;19.75;;;;;;;8.62;100.00;93172.94;5031199;28;20053;-81
2021/11/08 04:46:55;;;;;;;32.28;19.52;;;;;;;8.65;100.00;93169.97;5030796;28;20061;-80
2021/11/08 04:49:37;;;;;;;35.42;19.80;;;;;;;8.62;100.00;93173.75;5030730;28;20387;-80
2021/11/08 04:52:19;;;;;;;39.90;18.10;;;;;;;8.65;100.00;93162.28;5030605;28;20053;-81
2021/11/08 04:54:53;;;;;;;37.15;19.05;;;;;;;8.83;100.00;93164.25;5030827;28;20068;-81
2021/11/08 05:22:05;;;;;;;39.40;22.65;;;;;;;8.53;100.00;93144.22;4999376;28;20137;-79
2021/11/08 05:25:02;;;;;;;43.22;24.13;;;;;;;8.55;100.00;93140.47;5010312;28;20053;-79
2021/11/08 05:30:15;;;;;;;49.40;25.67;;;;;;;8.61;100.00;93138.88;5010301;28;20053;-80
2021/11/08 05:32:44;;;;;;;57.35;38.13;;;;;;;8.68;100.00;93128.63;5010253;28;20046;-79
2021/11/08 05:35:13;;;;;;;62.90;34.97;;;;;;;8.80;100.00;93137.25;5010359;28;20053;-81
2021/11/08 05:37:43;;;;;;;54.35;30.73;;;;;;;8.89;100.00;93139.63;5009889;28;20053;-81
2021/11/08 05:40:13;;;;;;;42.42;19.67;;;;;;;8.85;100.00;93139.25;5010017;28;20578;-81
2021/11/08 05:42:43;;;;;;;37.50;16.33;;;;;;;8.71;100.00;93122.31;5009650;28;20057;-80
2021/11/08 05:45:15;;;;;;;37.83;20.20;;;;;;;8.80;100.00;93144.94;5009864;28;20049;-80
2021/11/08 05:47:43;;;;;;;62.50;32.78;;;;;;;8.90;100.00;93151.44;5009871;28;20140;-81
2021/11/08 05:50:12;;;;;;;52.50;27.00;;;;;;;9.00;100.00;93156.94;5009793;28;20056;-81
2021/11/08 05:52:39;;;;;;;40.25;21.75;;;;;;;9.07;100.00;93157.69;5008516;28;20050;-81
2021/11/08 05:55:10;;;;;;;38.35;19.40;;;;;;;9.02;100.00;93157.50;5007835;28;20050;-81
2021/11/08 05:57:52;;;;;;;44.53;20.67;;;;;;;9.17;100.00;93164.19;5008922;28;20058;-81
2021/11/08 06:01:00;;;;;;;44.10;21.45;;;;;;;9.23;100.00;93164.16;5009687;28;20056;-79
2021/11/08 06:50:01;;;;;;;34.15;17.45;;;;;;;9.44;100.00;93185.38;5009292;28;20109;-80
2021/11/08 06:52:29;;;;;;;33.85;18.60;;;;;;;9.55;100.00;93176.28;5008979;28;20062;-80
2021/11/08 06:54:57;;;;;;;31.85;15.02;;;;;;;9.73;100.00;93183.28;5009233;28;20141;-80
2021/11/08 06:57:30;;;;;;;34.65;15.90;;;;;;;9.69;100.00;93151.38;5008832;28;20484;-80
2021/11/08 06:59:57;;;;;;;28.00;14.30;;;;;;;10.03;100.00;93187.09;5009302;28;20050;-80
2021/11/08 07:02:25;;;;;;;29.02;13.57;;;;;;;10.28;100.00;93184.56;5008905;28;20359;-80
2021/11/08 07:04:52;;;;;;;29.20;14.45;;;;;;;10.40;100.00;93183.88;5009077;28;20537;-80
2021/11/08 07:07:21;;;;;;;26.67;13.13;;;;;;;10.51;100.00;93179.91;5008691;28;20096;-80
2021/11/08 07:09:48;;;;;;;31.00;13.82;;;;;;;10.75;100.00;93180.91;5009144;28;20459;-81
2021/11/08 07:12:15;;;;;;;24.88;12.82;;;;;;;10.89;100.00;93183.34;5008880;28;20050;-80
2021/11/08 07:14:42;;;;;;;27.58;13.25;;;;;;;11.05;100.00;93180.22;5011513;28;20046;-80
2021/11/08 07:17:09;;;;;;;30.42;13.43;;;;;;;11.18;100.00;93181.06;5012499;28;20057;-80
2021/11/08 07:19:36;;;;;;;23.58;13.70;;;;;;;11.31;100.00;93180.16;5012344;28;20100;-81
2021/11/08 07:22:03;;;;;;;28.05;12.98;;;;;;;11.36;100.00;93175.16;5012393;28;20061;-80
2021/11/08 07:24:32;;;;;;;26.63;12.75;;;;;;;11.49;100.00;93163.94;5012635;28;20046;-80
2021/11/08 07:26:58;;;;;;;27.80;12.45;;;;;;;11.74;100.00;93173.31;5012460;28;20050;-79
2021/11/08 07:29:27;;;;;;;26.08;12.25;;;;;;;11.76;100.00;93156.66;5012306;28;20054;-79
2021/11/08 07:31:54;;;;;;;29.83;13.82;;;;;;;12.04;100.00;93172.59;5012222;28;20511;-79
2021/11/08 07:34:21;;;;;;;24.05;12.45;;;;;;;12.11;100.00;93159.59;5012301;28;20053;-79
2021/11/08 07:36:48;;;;;;;28.70;13.05;;;;;;;12.37;100.00;93166.16;5011995;28;20042;-79
2021/11/08 07:39:15;;;;;;;25.60;12.13;;;;;;;12.48;100.00;93172.34;5012015;28;20057;-79
2021/11/08 07:41:43;;;;;;;21.08;10.77;;;;;;;12.56;100.00;93174.56;5012475;28;20054;-79
2021/11/08 07:44:10;;;;;;;20.33;9.48;;;;;;;12.65;100.00;93171.69;5012303;28;20046;-80
2021/11/08 07:46:37;;;;;;;17.80;10.20;;;;;;;12.68;100.00;93168.66;5011861;28;20038;-79
2021/11/08 07:49:04;;;;;;;28.70;11.77;;;;;;;12.93;100.00;93183.91;5012262;28;20050;-79
2021/11/08 07:51:31;;;;;;;25.13;12.00;;;;;;;13.07;100.00;93186.25;5012142;28;20054;-79
2021/11/08 07:53:58;;;;;;;23.92;11.52;;;;;;;13.13;100.00;93177.63;5012029;28;20053;-79
2021/11/08 07:56:25;;;;;;;28.58;11.98;;;;;;;13.25;100.00;93180.19;5012005;28;20049;-79
2021/11/08 07:58:53;;;;;;;28.23;12.93;;;;;;;13.43;100.00;93174.09;5011631;28;20104;-79
2021/11/08 08:01:20;;;;;;;23.58;10.50;;;;;;;13.54;100.00;93171.72;5011451;28;20611;-79
2021/11/08 08:03:47;;;;;;;24.77;11.00;;;;;;;13.74;100.00;93169.56;5011745;28;20049;-79
2021/11/08 08:06:15;;;;;;;29.85;10.35;;;;;;;13.81;98.79;93151.34;5011872;28;20128;-79
2021/11/08 08:08:46;;;;;;;26.52;10.75;;;;;;;14.03;98.84;93166.19;5011979;28;20045;-79
2021/11/08 08:11:13;;;;;;;29.10;10.68;;;;;;;14.24;96.52;93162.16;5011726;28;20509;-80
2021/11/08 08:13:40;;;;;;;22.58;10.02;;;;;;;14.48;95.96;93159.41;5007281;28;20443;-80
2021/11/08 08:16:12;;;;;;;25.73;11.13;;;;;;;14.54;93.77;93168.03;5010013;28;20057;-80
2021/11/08 08:18:39;;;;;;;29.27;12.13;;;;;;;14.50;94.29;93159.97;5011526;28;20642;-79
2021/11/08 08:21:07;;;;;;;23.48;9.95;;;;;;;14.64;94.11;93152.69;5011402;28;20053;-79
2021/11/08 08:23:35;;;;;;;26.20;12.30;;;;;;;14.69;93.05;93154.56;5011161;28;20048;-80
2021/11/08 08:26:03;;;;;;;23.77;10.38;;;;;;;14.66;91.98;93168.75;5009940;28;20511;-79
2021/11/08 08:28:30;;;;;;;22.58;11.38;;;;;;;14.75;91.77;93181.28;5011046;28;20088;-79
2021/11/08 08:30:58;;;;;;;29.83;12.18;;;;;;;14.88;92.00;93156.91;5011445;28;20470;-80
2021/11/08 08:33:27;;;;;;;31.20;11.88;;;;;;;15.07;91.11;93165.19;5010982;28;20057;-79
2021/11/08 08:35:54;;;;;;;18.60;9.80;;;;;;;15.18;89.93;93158.38;5011072;28;20054;-80
2021/11/08 08:38:22;;;;;;;24.23;9.43;;;;;;;15.41;88.63;93167.69;5010969;28;20065;-80
2021/11/08 08:40:51;;;;;;;25.48;10.68;;;;;;;15.32;86.48;93132.91;5011004;28;20056;-80
2021/11/08 08:43:19;;;;;;;23.00;10.35;;;;;;;15.73;86.96;93171.41;5011111;28;20049;-80
2021/11/08 08:45:47;;;;;;;25.80;10.77;;;;;;;16.00;87.70;93165.50;5010640;28;20053;-81
2021/11/08 08:48:14;;;;;;;23.13;9.32;;;;;;;16.22;85.81;93165.47;5010896;28;20080;-80
2021/11/08 08:50:44;;;;;;;23.10;10.30;;;;;;;16.39;82.25;93157.56;5010886;28;20046;-80
2021/11/08 08:53:11;;;;;;;24.25;11.10;;;;;;;16.57;81.35;93147.84;5010827;28;20045;-80
2021/11/08 08:55:39;;;;;;;25.50;8.43;;;;;;;16.77;81.57;93162.78;5010645;28;20050;-80
2021/11/08 08:58:08;;;;;;;20.23;8.93;;;;;;;16.67;80.07;93136.78;5010466;28;20050;-80
2021/11/08 09:00:36;;;;;;;22.90;8.50;;;;;;;16.86;78.89;93157.13;5010529;28;20050;-80
2021/11/08 09:03:03;;;;;;;29.17;9.32;;;;;;;17.05;78.78;93152.34;5010408;28;20061;-80
2021/11/08 09:05:30;;;;;;;30.17;9.23;;;;;;;17.20;75.86;93156.81;5010390;28;20528;-80
2021/11/08 09:07:58;;;;;;;26.10;8.57;;;;;;;17.27;77.69;93128.81;5010436;28;20100;-80
2021/11/08 09:10:27;;;;;;;23.88;8.68;;;;;;;17.60;76.49;93150.25;5010506;28;20514;-80
2021/11/08 09:12:55;;;;;;;21.25;7.38;;;;;;;17.74;72.99;93147.94;5010392;28;20054;-80
2021/11/08 09:15:24;;;;;;;19.40;7.18;;;;;;;17.81;73.00;93149.53;5010506;28;20450;-80
2021/11/08 09:17:51;;;;;;;16.27;6.45;;;;;;;17.91;74.11;93133.94;5010651;28;20054;-81
2021/11/08 09:20:18;;;;;;;23.05;8.35;;;;;;;17.95;72.64;93139.44;5010544;28;20054;-81
2021/11/08 09:22:48;;;;;;;20.63;8.27;;;;;;;17.97;72.23;93140.72;5010662;28;20064;-80
2021/11/08 09:25:16;;;;;;;25.70;7.30;;;;;;;17.99;72.25;93135.28;5010265;28;20056;-81
2021/11/08 09:27:49;;;;;;;25.38;8.43;;;;;;;18.23;71.10;93133.00;5009945;28;20049;-80
2021/11/08 09:30:18;;;;;;;23.27;7.57;;;;;;;18.37;68.57;93132.50;5010436;28;20111;-80
2021/11/08 09:32:46;;;;;;;23.10;7.80;;;;;;;18.58;70.83;93124.66;5010054;28;20046;-80
2021/11/08 09:35:13;;;;;;;17.52;7.00;;;;;;;18.67;67.17;93118.69;5010071;28;20045;-80
2021/11/08 09:37:43;;;;;;;18.60;7.70;;;;;;;19.04;63.54;93134.25;5009879;28;20097;-80
2021/11/08 09:40:13;;;;;;;19.10;6.22;;;;;;;19.21;62.36;93131.38;5009971;28;20529;-81
2021/11/08 09:42:42;;;;;;;15.00;5.60;;;;;;;19.53;58.77;93117.16;5009750;28;20048;-81
2021/11/08 09:45:10;;;;;;;14.45;5.93;;;;;;;19.73;62.28;93108.47;5010234;28;20100;-81
2021/11/08 09:47:38;;;;;;;16.08;5.90;;;;;;;19.95;60.09;93102.06;5010126;28;20076;-81
2021/11/08 09:50:08;;;;;;;13.32;5.18;;;;;;;20.39;57.90;93099.72;5009968;28;20054;-81
2021/11/08 09:52:38;;;;;;;10.45;4.13;;;;;;;20.65;57.00;93102.13;5010139;28;20054;-81
2021/11/08 09:55:08;;;;;;;12.35;3.30;;;;;;;20.88;55.10;93100.59;5010214;28;20060;-82
2021/11/08 09:57:35;;;;;;;11.07;3.72;;;;;;;21.06;49.02;93090.53;5009921;28;20050;-81
2021/11/08 10:00:15;;;;;;;14.20;4.30;;;;;;;21.18;51.19;93088.28;5009762;28;20057;-81
2021/11/08 10:02:48;;;;;;;14.10;3.85;;;;;;;21.23;51.29;93085.63;5009373;28;20590;-80
2021/11/08 10:05:14;;;;;;;10.02;3.40;;;;;;;21.36;49.68;93078.16;5009555;28;20045;-81
2021/11/08 10:07:41;;;;;;;9.52;3.70;;;;;;;21.43;48.66;93078.56;5009802;28;20041;-82
2021/11/08 10:10:08;;;;;;;7.55;2.67;;;;;;;21.48;48.54;93075.91;5009619;28;20045;-82
2021/11/08 10:12:35;;;;;;;9.80;2.92;;;;;;;21.53;46.85;93069.84;5009798;28;20099;-83
2021/11/08 10:15:04;;;;;;;15.10;3.60;;;;;;;21.68;47.94;93079.31;5009700;28;20111;-81
2021/11/08 10:17:31;;;;;;;20.83;11.27;;;;;;;21.67;46.52;93072.53;5009575;28;20431;-80
2021/11/08 10:19:58;;;;;;;18.00;9.65;;;;;;;21.70;46.11;93072.00;5009578;28;20046;-81
2021/11/08 10:22:27;;;;;;;15.43;9.82;;;;;;;21.75;47.00;93074.53;5009416;28;20617;-80
2021/11/08 10:24:58;;;;;;;10.57;5.78;;;;;;;21.75;45.93;93066.69;5009494;28;20100;-80
2021/11/08 10:27:25;;;;;;;13.75;5.53;;;;;;;21.81;44.95;93067.41;5009578;28;20096;-80
2021/11/08 10:29:51;;;;;;;15.15;5.10;;;;;;;21.87;44.71;93058.44;5009311;28;20042;-80
2021/11/08 10:32:20;;;;;;;10.43;3.28;;;;;;;21.84;45.04;93037.31;5009473;28;20050;-80
2021/11/08 10:34:50;;;;;;;7.50;2.65;;;;;;;22.05;44.07;93058.69;5016237;28;20046;-79
2021/11/08 10:37:27;;;;;;;21.45;12.68;;;;;;;22.22;43.65;93058.16;5027677;28;20537;-79
2021/11/08 10:39:54;;;;;;;18.48;8.10;;;;;;;22.39;43.25;93056.84;5028866;28;20053;-80
2021/11/08 10:42:23;;;;;;;15.02;3.28;;;;;;;22.45;42.79;93042.59;5028838;28;20050;-80
2021/11/08 10:44:49;;;;;;;18.60;8.43;;;;;;;22.61;42.39;93045.78;5029237;28;20049;-80
2021/11/08 10:47:21;;;;;;;16.23;7.07;;;;;;;22.65;42.78;93045.97;5029239;28;20050;-79
2021/11/08 10:49:48;;;;;;;13.52;6.93;;;;;;;22.78;42.22;93050.44;5032475;28;20049;-80
2021/11/08 10:52:18;;;;;;;11.68;4.28;;;;;;;22.83;40.68;93052.19;5032909;28;20068;-80
2021/11/08 10:54:49;;;;;;;10.45;3.50;;;;;;;22.92;39.85;93049.66;5032794;28;20046;-80
2021/11/08 10:57:20;;;;;;;11.85;3.15;;;;;;;23.00;40.70;93046.34;5032708;28;20041;-79
2021/11/08 10:59:49;;;;;;;10.45;2.80;;;;;;;23.07;40.74;93040.75;5032628;28;20149;-80
2021/11/08 11:02:17;;;;;;;8.52;2.33;;;;;;;23.23;40.72;93043.81;5032922;28;20049;-80
2021/11/08 11:04:48;;;;;;;114.78;58.05;;;;;;;23.34;40.09;93047.06;5032844;28;20049;-80
2021/11/08 11:07:15;;;;;;;52.92;27.25;;;;;;;23.39;38.91;93044.31;5032658;28;20092;-80
2021/11/08 11:09:42;;;;;;;36.67;17.48;;;;;;;23.47;39.21;93058.59;5032537;28;20045;-80
2021/11/08 11:12:13;;;;;;;10.55;5.07;;;;;;;23.48;39.12;93039.91;5032864;28;20057;-80
2021/11/08 11:14:42;;;;;;;16.13;3.85;;;;;;;23.55;37.70;93036.91;5032496;28;20078;-79
2021/11/08 11:17:12;;;;;;;10.35;3.55;;;;;;;23.69;38.30;93047.34;5032731;28;20072;-83
2021/11/08 11:19:39;;;;;;;55.35;24.50;;;;;;;23.56;37.72;93025.34;5032584;28;20057;-83
2021/11/08 11:22:10;;;;;;;25.02;10.10;;;;;;;23.70;39.54;93056.78;5032346;28;20053;-84
2021/11/08 11:24:45;;;;;;;23.02;7.60;;;;;;;23.67;39.37;93053.97;5032634;28;20183;-83
2021/11/08 11:27:16;;;;;;;11.93;4.53;;;;;;;23.63;38.87;93045.91;5033252;28;20049;-83
2021/11/08 11:29:45;;;;;;;12.77;4.85;;;;;;;23.69;38.41;93057.84;5032670;28;20042;-83
2021/11/08 11:32:25;;;;;;;12.07;4.32;;;;;;;23.11;39.46;93006.88;5031975;28;20513;-83
2021/11/08 11:34:53;;;;;;;18.83;4.70;;;;;;;23.37;40.98;93048.31;5032255;28;20045;-83
2021/11/08 11:37:24;;;;;;;11.30;5.03;;;;;;;23.26;42.15;93050.31;5031856;28;20053;-83
2021/11/08 11:40:04;;;;;;;13.68;4.57;;;;;;;23.04;42.62;93013.28;5027786;28;20356;-83
2021/11/08 11:42:32;;;;;;;12.77;4.35;;;;;;;23.26;42.83;93048.50;5030156;28;20041;-83
2021/11/08 11:45:03;;;;;;;18.63;6.13;;;;;;;23.19;42.76;93046.25;5031483;28;20519;-82
2021/11/08 11:47:30;;;;;;;19.52;6.30;;;;;;;23.17;42.30;93039.75;5031898;28;20089;-84
2021/11/08 11:49:58;;;;;;;13.15;4.85;;;;;;;23.06;42.82;93028.72;5031803;28;20052;-84
2021/11/08 11:52:26;;;;;;;10.40;4.63;;;;;;;23.16;42.17;93049.47;5031433;28;20494;-83
2021/11/08 11:54:53;;;;;;;17.65;5.25;;;;;;;23.22;43.12;93042.28;5031281;28;20049;-82
2021/11/08 11:57:20;;;;;;;10.88;4.65;;;;;;;23.22;43.29;93048.31;5031470;28;20368;-82
2021/11/08 11:59:47;;;;;;;14.25;4.93;;;;;;;23.05;43.53;93020.06;5031153;28;20056;-82
2021/11/08 12:02:17;;;;;;;15.05;5.05;;;;;;;23.03;42.62;93024.03;5031241;28;20053;-83
2021/11/08 12:04:44;;;;;;;14.65;4.40;;;;;;;23.01;42.91;93026.19;5031190;28;20045;-83
2021/11/08 12:07:13;;;;;;;18.55;5.43;;;;;;;23.12;44.07;93039.84;5031167;28;20041;-83
2021/11/08 12:09:42;;;;;;;13.13;4.65;;;;;;;23.01;43.52;93026.19;5031382;28;20447;-82
2021/11/08 12:12:09;;;;;;;18.00;4.63;;;;;;;23.14;44.48;93041.13;5031419;28;20103;-83
2021/11/08 12:14:37;;;;;;;16.35;4.88;;;;;;;23.09;44.82;93023.66;5031301;28;20045;-83
2021/11/08 12:17:06;;;;;;;13.07;5.90;;;;;;;23.00;44.25;93037.75;5031610;28;20064;-82
2021/11/08 12:19:35;;;;;;;15.07;5.22;;;;;;;22.91;44.84;93027.94;5030884;28;20049;-82
2021/11/08 12:22:13;;;;;;;11.45;5.05;;;;;;;22.84;43.68;93040.66;5031163;28;20053;-82
2021/11/08 12:24:43;;;;;;;10.73;4.63;;;;;;;22.46;43.47;93040.75;5031257;28;20064;-82
2021/11/08 12:27:12;;;;;;;10.38;3.65;;;;;;;22.30;43.96;93033.16;5030871;28;20056;-82
2021/11/08 12:29:50;;;;;;;14.88;4.00;;;;;;;22.27;45.09;93041.59;5031235;28;20473;-82
2021/11/08 12:32:17;;;;;;;19.70;4.85;;;;;;;22.34;45.50;93046.44;5020666;28;20041;-82
2021/11/08 12:34:55;;;;;;;10.57;4.78;;;;;;;21.94;43.92;93002.38;5016650;28;20061;-82
2021/11/08 12:37:34;;;;;;;20.77;5.63;;;;;;;21.97;43.28;93026.09;5016852;28;20133;-81
2021/11/08 12:40:05;;;;;;;17.98;6.82;;;;;;;21.92;43.85;93023.56;5016668;28;20061;-81
2021/11/08 12:42:38;;;;;;;11.73;4.30;;;;;;;21.93;44.47;93011.28;5016579;28;20050;-81
2021/11/08 12:45:13;;;;;;;13.05;4.00;;;;;;;22.06;43.89;93044.53;5016644;28;20037;-82